createdAt,value
2022-12-19T00:01:34.888Z,42.78
2022-12-19T00:04:08.606Z,39.08
2022-12-19T00:06:37.285Z,41.67
2022-12-19T00:09:04.959Z,40.58
2022-12-19T00:11:33.028Z,32.88
2022-12-19T00:14:00.186Z,37.47
2022-12-19T00:16:29.046Z,36.75
2022-12-19T00:18:58.061Z,38.28
2022-12-19T00:21:29.720Z,38.80
2022-12-19T00:23:57.372Z,39.95
2022-12-19T00:26:32.568Z,38.40
2022-12-19T00:29:02.221Z,37.88
2022-12-19T00:31:31.136Z,40.33
2022-12-19T00:33:57.936Z,36.15
2022-12-19T00:36:30.141Z,36.13
2022-12-19T00:38:59.074Z,37.10
2022-12-19T00:41:28.072Z,37.47
2022-12-19T00:43:57.918Z,36.83
2022-12-19T00:46:25.677Z,38.13
2022-12-19T00:48:52.357Z,27.90
2022-12-19T00:51:21.884Z,39.72
2022-12-19T00:53:50.054Z,35.00
2022-12-19T00:56:20.258Z,37.83
2022-12-19T00:58:47.676Z,29.75
2022-12-19T01:01:20.308Z,33.83
2022-12-19T01:04:04.748Z,33.17
2022-12-19T01:06:34.805Z,33.85
2022-12-19T01:09:01.496Z,34.33
2022-12-19T01:11:47.052Z,30.73
2022-12-19T01:14:22.351Z,34.45
2022-12-19T01:16:49.946Z,39.72
2022-12-19T01:19:19.071Z,32.85
2022-12-19T01:21:45.676Z,35.97
2022-12-19T01:24:13.673Z,42.40
2022-12-19T01:26:42.370Z,42.63
2022-12-19T01:29:08.978Z,36.45
2022-12-19T01:31:36.114Z,36.42
2022-12-19T01:34:03.174Z,33.60
2022-12-19T01:36:29.928Z,35.67
2022-12-19T01:38:59.256Z,34.63
2022-12-19T01:41:27.105Z,36.33
2022-12-19T01:44:03.663Z,37.75
2022-12-19T01:46:37.249Z,34.10
2022-12-19T01:49:06.189Z,41.75
2022-12-19T01:51:45.599Z,36.03
2022-12-19T01:54:17.645Z,35.90
2022-12-19T01:56:49.918Z,38.30
2022-12-19T01:59:22.540Z,36.38
2022-12-19T02:01:55.312Z,35.40
2022-12-19T02:04:24.368Z,38.72
2022-12-19T02:06:55.654Z,38.10
2022-12-19T02:09:24.292Z,37.30
2022-12-19T02:11:51.970Z,39.10
2022-12-19T02:14:18.872Z,34.88
2022-12-19T02:16:48.426Z,35.05
2022-12-19T02:19:36.687Z,41.95
2022-12-19T02:22:21.727Z,36.22
2022-12-19T02:25:04.700Z,32.90
2022-12-19T02:27:59.048Z,29.75
2022-12-19T02:30:56.696Z,39.95
2022-12-19T02:33:45.846Z,39.20
2022-12-19T02:36:21.599Z,39.75
2022-12-19T02:38:58.599Z,38.15
2022-12-19T02:41:43.465Z,39.72
2022-12-19T02:44:40.315Z,27.48
2022-12-19T02:47:08.754Z,38.78
2022-12-19T02:49:38.804Z,38.60
2022-12-19T02:52:19.325Z,33.03
2022-12-19T02:54:54.439Z,33.10
2022-12-19T02:57:28.097Z,32.40
2022-12-19T03:00:10.779Z,37.03
2022-12-19T03:03:15.188Z,35.47
2022-12-19T03:05:47.656Z,38.90
2022-12-19T03:08:32.645Z,36.42
2022-12-19T03:11:04.539Z,35.75
2022-12-19T03:13:35.650Z,38.22
2022-12-19T03:16:04.277Z,39.80
2022-12-19T03:18:33.130Z,40.08
2022-12-19T03:21:06.976Z,38.20
2022-12-19T03:23:33.934Z,28.83
2022-12-19T03:26:06.545Z,32.22
2022-12-19T03:28:50.181Z,38.17
2022-12-19T03:31:19.443Z,35.90
2022-12-19T03:33:48.295Z,33.38
2022-12-19T03:36:21.057Z,32.08
2022-12-19T03:38:49.013Z,33.53
2022-12-19T03:41:39.132Z,39.60
2022-12-19T03:44:08.388Z,45.03
2022-12-19T03:46:41.573Z,35.53
2022-12-19T03:49:08.237Z,39.75
2022-12-19T03:51:57.770Z,36.60
2022-12-19T03:54:29.746Z,33.13
2022-12-19T03:57:06.765Z,36.38
2022-12-19T03:59:33.300Z,36.53
2022-12-19T04:02:01.700Z,33.97
2022-12-19T04:04:31.535Z,34.05
2022-12-19T04:06:58.872Z,33.83
2022-12-19T04:09:25.635Z,36.88
2022-12-19T04:12:02.034Z,34.38
2022-12-19T04:14:32.908Z,36.85
2022-12-19T04:17:13.641Z,37.28
2022-12-19T04:19:53.632Z,36.40
2022-12-19T04:22:32.078Z,39.63
2022-12-19T04:25:03.194Z,39.47
2022-12-19T04:27:32.704Z,41.15
2022-12-19T04:30:01.242Z,40.97
2022-12-19T04:32:30.029Z,38.47
2022-12-19T04:34:56.679Z,30.00
2022-12-19T04:37:26.124Z,34.58
2022-12-19T04:39:53.183Z,37.53
2022-12-19T04:42:19.734Z,35.65
2022-12-19T04:44:46.325Z,42.70
2022-12-19T04:47:13.045Z,42.70
2022-12-19T04:49:39.586Z,34.83
2022-12-19T04:52:06.199Z,37.15
2022-12-19T04:54:34.834Z,42.33
2022-12-19T04:57:01.940Z,38.38
2022-12-19T04:59:28.560Z,37.08
2022-12-19T05:01:55.232Z,41.00
2022-12-19T05:04:21.888Z,33.10
2022-12-19T05:06:48.488Z,36.50
2022-12-19T05:09:15.075Z,38.78
2022-12-19T05:11:41.736Z,41.28
2022-12-19T05:14:08.580Z,37.00
2022-12-19T05:16:35.228Z,34.22
2022-12-19T05:19:01.892Z,38.53
2022-12-19T05:21:28.731Z,39.50
2022-12-19T05:23:55.281Z,49.45
2022-12-19T05:26:21.848Z,38.92
2022-12-19T05:28:48.799Z,44.05
2022-12-19T05:31:19.943Z,39.35
2022-12-19T05:33:47.970Z,37.47
2022-12-19T05:36:16.061Z,35.63
2022-12-19T05:38:42.968Z,34.72
2022-12-19T05:41:11.742Z,38.15
2022-12-19T05:43:42.309Z,39.03
2022-12-19T05:46:09.347Z,34.42
2022-12-19T05:48:36.333Z,37.70
2022-12-19T05:51:03.721Z,44.30
2022-12-19T05:53:30.311Z,35.80
2022-12-19T05:56:10.263Z,43.83
2022-12-19T05:58:38.866Z,37.30
2022-12-19T06:01:15.575Z,29.58
2022-12-19T06:03:42.313Z,37.67
2022-12-19T06:06:11.852Z,33.30
2022-12-19T06:08:38.867Z,44.33
2022-12-19T06:11:07.051Z,42.72
2022-12-19T06:13:34.270Z,41.00
2022-12-19T06:16:10.065Z,38.13
2022-12-19T06:18:40.450Z,42.50
2022-12-19T06:21:15.931Z,33.58
2022-12-19T06:23:43.687Z,39.83
2022-12-19T06:26:18.267Z,43.58
2022-12-19T06:28:46.392Z,39.78
2022-12-19T06:31:13.617Z,45.08
2022-12-19T06:33:40.435Z,43.13
2022-12-19T06:36:28.854Z,42.78
2022-12-19T06:38:57.882Z,40.58
2022-12-19T06:41:50.825Z,38.00
2022-12-19T06:44:17.838Z,44.10
2022-12-19T06:46:44.735Z,41.42
2022-12-19T06:49:11.888Z,36.22
2022-12-19T06:51:38.567Z,43.60
2022-12-19T06:54:05.266Z,34.75
2022-12-19T06:56:39.232Z,35.75
2022-12-19T06:59:07.500Z,40.65
2022-12-19T07:02:02.210Z,43.58
2022-12-19T07:04:49.630Z,45.80
2022-12-19T07:07:16.524Z,42.92
2022-12-19T07:09:43.267Z,37.45
2022-12-19T07:12:09.778Z,41.40
2022-12-19T07:14:36.392Z,38.50
2022-12-19T07:17:03.906Z,35.83
2022-12-19T07:19:32.100Z,42.13
2022-12-19T07:22:01.826Z,39.45
2022-12-19T07:24:29.908Z,36.42
2022-12-19T07:26:56.727Z,33.67
2022-12-19T07:29:23.334Z,38.05
2022-12-19T07:31:50.137Z,42.70
2022-12-19T07:34:16.784Z,38.58
2022-12-19T07:36:43.366Z,38.72
2022-12-19T07:39:10.021Z,46.33
2022-12-19T07:41:38.024Z,38.83
2022-12-19T07:44:06.267Z,45.85
2022-12-19T07:46:32.874Z,41.42
2022-12-19T07:48:59.888Z,44.33
2022-12-19T07:51:28.144Z,43.13
2022-12-19T07:53:54.865Z,41.95
2022-12-19T07:56:21.463Z,46.92
2022-12-19T07:58:48.052Z,44.17
2022-12-19T08:01:14.667Z,51.70
2022-12-19T08:03:41.308Z,44.95
2022-12-19T08:06:07.956Z,45.92
2022-12-19T08:08:35.316Z,41.53
2022-12-19T08:11:17.378Z,38.92
2022-12-19T08:13:46.686Z,40.30
2022-12-19T08:16:14.027Z,44.03
2022-12-19T08:18:40.895Z,41.10
2022-12-19T08:21:08.272Z,39.47
2022-12-19T08:23:35.054Z,43.53
2022-12-19T08:26:03.835Z,43.70
2022-12-19T08:28:32.166Z,46.75
2022-12-19T08:31:05.206Z,41.67
2022-12-19T08:33:31.811Z,43.17
2022-12-19T08:35:58.415Z,46.38
2022-12-19T08:38:24.958Z,38.30
2022-12-19T08:40:54.913Z,39.35
2022-12-19T08:43:21.548Z,47.15
2022-12-19T08:45:50.992Z,42.70
2022-12-19T08:48:17.854Z,42.03
2022-12-19T08:50:57.917Z,42.00
2022-12-19T08:53:26.890Z,47.33
2022-12-19T08:56:02.605Z,48.35
2022-12-19T08:58:30.356Z,47.15
2022-12-19T09:01:05.895Z,39.05
2022-12-19T09:03:33.013Z,55.00
2022-12-19T09:06:18.843Z,47.92
2022-12-19T09:08:46.022Z,49.65
2022-12-19T09:11:17.048Z,47.63
2022-12-19T09:13:44.959Z,45.72
2022-12-19T09:16:14.536Z,53.00
2022-12-19T09:18:48.059Z,46.92
2022-12-19T09:21:15.975Z,41.72
2022-12-19T09:23:43.674Z,45.38
2022-12-19T09:26:13.887Z,46.15
2022-12-19T09:28:41.791Z,45.10
2022-12-19T09:31:14.354Z,50.20
2022-12-19T09:33:43.610Z,45.97
2022-12-19T09:36:23.233Z,54.42
2022-12-19T09:38:50.407Z,39.88
2022-12-19T09:41:36.184Z,44.95
2022-12-19T09:44:33.194Z,44.35
2022-12-19T09:47:10.274Z,42.28
2022-12-19T09:49:41.879Z,43.05
2022-12-19T09:52:17.239Z,38.40
2022-12-19T09:54:56.013Z,35.92
2022-12-19T09:57:48.894Z,37.55
2022-12-19T10:00:19.438Z,49.22
2022-12-19T10:03:16.414Z,41.27
2022-12-19T10:07:07.594Z,37.50
2022-12-19T10:08:44.806Z,39.45
2022-12-19T10:12:43.721Z,44.67
2022-12-19T10:14:28.469Z,41.55
2022-12-19T10:17:25.476Z,33.00
2022-12-19T10:20:20.538Z,38.92
2022-12-19T10:23:13.403Z,40.75
2022-12-19T10:25:48.887Z,40.38
2022-12-19T10:28:43.387Z,35.35
2022-12-19T10:31:27.607Z,34.22
2022-12-19T10:34:16.270Z,42.53
2022-12-19T10:39:32.458Z,36.10
2022-12-19T10:42:09.349Z,33.90
2022-12-19T10:44:39.812Z,38.03
2022-12-19T10:47:15.111Z,41.78
2022-12-19T10:49:42.231Z,47.45
2022-12-19T10:52:11.137Z,38.72
2022-12-19T10:54:37.774Z,35.95
2022-12-19T10:57:22.595Z,55.72
2022-12-19T11:00:15.641Z,51.58
2022-12-19T11:02:46.872Z,37.45
2022-12-19T11:05:47.521Z,36.35
2022-12-19T11:08:29.690Z,34.70
2022-12-19T11:13:25.850Z,33.25
2022-12-19T11:19:30.234Z,29.35
2022-12-19T11:22:28.555Z,34.17
2022-12-19T11:26:24.836Z,32.30
2022-12-19T11:29:46.626Z,33.17
2022-12-19T11:30:39.349Z,28.92
2022-12-19T11:30:46.259Z,33.75
2022-12-19T11:34:23.797Z,30.02
2022-12-19T11:37:15.364Z,29.48
2022-12-19T11:39:47.490Z,32.30
2022-12-19T11:43:10.878Z,30.52
2022-12-19T11:45:50.788Z,35.03
2022-12-19T11:48:22.045Z,37.10
2022-12-19T11:51:16.443Z,35.63
2022-12-19T11:53:50.964Z,34.55
2022-12-19T11:56:21.317Z,33.72
2022-12-19T11:58:55.701Z,33.72
2022-12-19T12:01:43.801Z,32.75
2022-12-19T12:04:10.449Z,31.55
2022-12-19T12:06:45.499Z,31.90
2022-12-19T12:14:38.013Z,34.95
2022-12-19T12:22:43.757Z,27.77
2022-12-19T12:23:54.660Z,31.90
2022-12-19T12:31:00.803Z,31.27
2022-12-19T12:31:26.004Z,33.83
2022-12-19T12:31:30.604Z,34.55
2022-12-19T12:31:57.406Z,33.75
2022-12-19T12:35:15.381Z,31.45
2022-12-19T12:35:33.625Z,26.63
2022-12-19T12:37:51.108Z,28.13
2022-12-19T12:39:39.365Z,31.75
2022-12-19T12:42:08.905Z,35.78
2022-12-19T12:44:44.890Z,31.80
2022-12-19T12:47:38.885Z,34.58
2022-12-19T12:50:17.150Z,31.25
2022-12-19T12:52:47.984Z,34.92
2022-12-19T12:55:23.715Z,30.33
2022-12-19T12:57:50.511Z,32.85
2022-12-19T13:00:28.921Z,32.42
2022-12-19T13:03:19.137Z,31.70
2022-12-19T13:05:48.891Z,33.17
2022-12-19T13:08:47.486Z,34.85
2022-12-19T13:11:54.335Z,30.52
2022-12-19T13:14:51.035Z,31.95
2022-12-19T13:17:32.743Z,29.95
2022-12-19T13:20:04.928Z,35.10
2022-12-19T13:22:32.239Z,29.25
2022-12-19T13:25:00.411Z,35.22
2022-12-19T13:27:41.738Z,34.50
2022-12-19T13:30:12.568Z,34.15
2022-12-19T13:32:39.093Z,32.45
2022-12-19T13:36:35.670Z,30.60
2022-12-19T13:40:02.471Z,32.30
2022-12-19T13:41:24.820Z,32.00
2022-12-19T13:43:58.350Z,34.03
2022-12-19T13:46:44.993Z,31.40
2022-12-19T13:49:25.496Z,26.95
2022-12-19T13:51:57.565Z,29.05
2022-12-19T13:54:34.652Z,31.77
2022-12-19T13:57:09.147Z,30.02
2022-12-19T13:59:39.719Z,31.30
2022-12-19T14:02:26.956Z,29.08
2022-12-19T14:04:53.922Z,32.15
2022-12-19T14:07:36.924Z,31.73
2022-12-19T14:11:27.639Z,29.65
2022-12-19T14:13:59.011Z,34.45
2022-12-19T14:16:43.459Z,32.55
2022-12-19T14:19:24.088Z,37.13
2022-12-19T14:22:04.659Z,32.20
2022-12-19T14:24:41.161Z,33.17
2022-12-19T14:28:18.527Z,34.35
2022-12-19T14:30:30.903Z,32.60
2022-12-19T14:33:46.387Z,33.35
2022-12-19T14:36:10.777Z,35.00
2022-12-19T14:39:20.921Z,33.35
2022-12-19T14:41:48.268Z,33.17
2022-12-19T14:52:51.579Z,33.47
2022-12-19T14:53:51.387Z,37.28
2022-12-19T14:54:20.803Z,34.00
2022-12-19T14:54:22.084Z,30.73
2022-12-19T14:56:16.279Z,32.88
2022-12-19T14:58:52.136Z,38.08
2022-12-19T15:01:24.419Z,29.42
2022-12-19T15:04:49.091Z,30.50
2022-12-19T15:07:08.449Z,43.20
2022-12-19T15:10:59.986Z,35.22
2022-12-19T15:14:04.153Z,32.65
2022-12-19T15:15:48.398Z,29.25
2022-12-19T15:18:19.890Z,39.30
2022-12-19T15:23:21.682Z,32.10
2022-12-19T15:26:06.446Z,31.35
2022-12-19T15:28:51.375Z,36.38
2022-12-19T15:31:26.322Z,32.75
2022-12-19T15:34:32.232Z,28.60
2022-12-19T15:36:39.863Z,28.45
2022-12-19T15:39:06.462Z,31.02
2022-12-19T15:41:33.046Z,26.80
2022-12-19T15:44:13.468Z,29.20
2022-12-19T15:46:46.362Z,30.05
2022-12-19T15:49:17.062Z,31.70
2022-12-19T15:51:44.041Z,31.70
2022-12-19T15:54:46.503Z,33.60
2022-12-19T15:56:57.402Z,30.23
2022-12-19T15:59:47.990Z,28.60
2022-12-19T16:02:22.221Z,28.10
2022-12-19T16:04:50.820Z,32.05
2022-12-19T16:07:22.831Z,29.92
2022-12-19T16:09:49.708Z,30.65
2022-12-19T16:12:35.608Z,25.15
2022-12-19T16:15:04.384Z,30.83
2022-12-19T16:17:33.355Z,30.73
2022-12-19T16:19:59.972Z,34.28
2022-12-19T16:22:28.934Z,30.35
2022-12-19T16:24:55.671Z,26.63
2022-12-19T16:27:26.475Z,26.65
2022-12-19T16:29:56.183Z,31.25
2022-12-19T16:32:25.782Z,29.67
2022-12-19T16:34:53.151Z,28.40
2022-12-19T16:37:31.769Z,34.88
2022-12-19T16:39:58.987Z,27.90
2022-12-19T16:42:25.627Z,31.88
2022-12-19T16:44:53.488Z,30.20
2022-12-19T16:47:21.403Z,31.73
2022-12-19T16:49:48.065Z,31.60
2022-12-19T16:52:14.602Z,27.38
2022-12-19T16:54:41.235Z,28.85
2022-12-19T16:57:19.907Z,32.00
2022-12-19T16:59:46.723Z,32.90
2022-12-19T17:02:42.439Z,30.70
2022-12-19T17:05:24.951Z,28.88
2022-12-19T17:07:52.484Z,29.98
2022-12-19T17:10:26.069Z,32.72
2022-12-19T17:12:54.507Z,31.60
2022-12-19T17:15:29.067Z,35.35
2022-12-19T17:17:59.276Z,31.02
2022-12-19T17:20:29.149Z,32.22
2022-12-19T17:22:55.916Z,31.73
2022-12-19T17:25:27.602Z,31.45
2022-12-19T17:27:55.711Z,32.22
2022-12-19T17:30:22.585Z,36.22
2022-12-19T17:32:52.480Z,36.00
2022-12-19T17:35:27.543Z,34.95
2022-12-19T17:37:56.890Z,32.38
2022-12-19T17:40:33.648Z,27.42
2022-12-19T17:43:00.587Z,40.53
2022-12-19T17:45:30.191Z,34.22
2022-12-19T17:48:02.995Z,28.23
2022-12-19T17:50:35.259Z,32.55
2022-12-19T17:53:02.015Z,27.30
2022-12-19T17:55:30.364Z,25.77
2022-12-19T17:57:57.839Z,30.73
2022-12-19T18:00:30.821Z,24.92
2022-12-19T18:03:02.800Z,26.67
2022-12-19T18:05:33.783Z,28.33
2022-12-19T18:10:31.392Z,29.13
2022-12-19T18:12:58.340Z,29.20
2022-12-19T18:15:25.507Z,31.83
2022-12-19T18:17:53.908Z,38.72
2022-12-19T18:20:30.897Z,32.80
2022-12-19T18:22:59.503Z,31.63
2022-12-19T18:25:29.472Z,30.27
2022-12-19T18:27:56.344Z,26.55
2022-12-19T18:30:24.282Z,26.55
2022-12-19T18:33:01.576Z,28.27
2022-12-19T18:35:52.294Z,27.17
2022-12-19T18:38:23.437Z,26.30
2022-12-19T18:40:54.390Z,29.13
2022-12-19T18:43:21.039Z,31.85
2022-12-19T18:45:51.714Z,30.98
2022-12-19T18:48:37.542Z,35.40
2022-12-19T18:51:05.678Z,27.83
2022-12-19T18:53:35.811Z,28.85
2022-12-19T18:56:04.310Z,31.92
2022-12-19T18:58:31.164Z,29.63
2022-12-19T19:00:59.616Z,31.70
2022-12-19T19:03:36.214Z,31.98
2022-12-19T19:06:04.111Z,26.95
2022-12-19T19:08:32.999Z,28.40
2022-12-19T19:11:13.595Z,29.10
2022-12-19T19:13:40.181Z,29.27
2022-12-19T19:16:27.024Z,29.10
2022-12-19T19:18:56.639Z,31.83
2022-12-19T19:21:26.196Z,32.30
2022-12-19T19:23:57.621Z,30.23
2022-12-19T19:28:53.703Z,27.08
2022-12-19T19:31:23.450Z,30.13
2022-12-19T19:33:56.695Z,34.05
2022-12-19T19:36:27.534Z,30.52
2022-12-19T19:38:56.195Z,28.30
2022-12-19T19:41:30.578Z,29.35
2022-12-19T19:44:03.593Z,28.85
2022-12-19T19:46:30.399Z,28.23
2022-12-19T19:48:57.193Z,33.60
2022-12-19T19:51:23.966Z,32.15
2022-12-19T19:53:53.496Z,30.13
2022-12-19T19:56:20.082Z,28.92
2022-12-19T19:58:46.679Z,28.63
2022-12-19T20:01:13.798Z,28.75
2022-12-19T20:03:44.784Z,31.92
2022-12-19T20:08:40.107Z,29.08
2022-12-19T20:11:08.830Z,33.08
2022-12-19T20:13:35.657Z,34.10
2022-12-19T20:16:11.347Z,27.02
2022-12-19T20:18:42.706Z,28.30
2022-12-19T20:21:13.808Z,31.02
2022-12-19T20:23:42.670Z,35.63
2022-12-19T20:26:11.320Z,30.33
2022-12-19T20:28:43.860Z,33.42
2022-12-19T20:31:14.306Z,30.42
2022-12-19T20:33:41.126Z,27.88
2022-12-19T20:36:10.281Z,28.70
2022-12-19T20:38:37.473Z,29.83
2022-12-19T20:41:04.959Z,30.35
2022-12-19T20:43:32.290Z,28.20
2022-12-19T20:46:03.991Z,31.10
2022-12-19T20:48:31.501Z,31.98
2022-12-19T20:50:59.497Z,28.15
2022-12-19T20:53:29.349Z,31.25
2022-12-19T20:55:58.830Z,30.25
2022-12-19T20:58:30.334Z,29.95
2022-12-19T21:01:03.140Z,28.50
2022-12-19T21:03:30.530Z,29.15
2022-12-19T21:05:57.959Z,30.75
2022-12-19T21:08:26.593Z,30.83
2022-12-19T21:10:54.175Z,28.15
2022-12-19T21:13:24.044Z,29.20
2022-12-19T21:15:59.640Z,28.63
2022-12-19T21:18:26.885Z,29.25
2022-12-19T21:20:54.164Z,28.42
2022-12-19T21:23:25.258Z,29.55
2022-12-19T21:25:53.128Z,25.50
2022-12-19T21:28:19.760Z,29.42
2022-12-19T21:30:46.338Z,28.13
2022-12-19T21:33:12.917Z,28.10
2022-12-19T21:35:39.451Z,30.30
2022-12-19T21:38:06.014Z,26.17
2022-12-19T21:40:32.571Z,29.92
2022-12-19T21:42:59.155Z,30.60
2022-12-19T21:45:25.746Z,29.02
2022-12-19T21:47:52.368Z,28.08
2022-12-19T21:50:22.182Z,23.75
2022-12-19T21:52:55.855Z,29.13
2022-12-19T21:55:22.617Z,29.33
2022-12-19T21:57:49.221Z,26.38
2022-12-19T22:00:18.080Z,29.42
2022-12-19T22:03:12.151Z,29.30
2022-12-19T22:05:34.001Z,27.33
2022-12-19T22:08:00.607Z,31.23
2022-12-19T22:10:27.842Z,29.05
2022-12-19T22:12:54.423Z,31.45
2022-12-19T22:15:21.008Z,27.63
2022-12-19T22:17:47.584Z,25.42
2022-12-19T22:20:14.208Z,28.73
2022-12-19T22:22:40.772Z,23.40
2022-12-19T22:25:07.703Z,27.35
2022-12-19T22:27:34.269Z,29.45
2022-12-19T22:30:06.535Z,26.42
2022-12-19T22:32:41.538Z,27.33
2022-12-19T22:35:08.357Z,28.83
2022-12-19T22:37:35.122Z,25.20
2022-12-19T22:40:04.018Z,26.50
2022-12-19T22:42:33.397Z,29.10
2022-12-19T22:45:00.423Z,25.45
2022-12-19T22:47:30.356Z,29.83
2022-12-19T22:49:56.919Z,28.38
2022-12-19T22:52:29.389Z,30.35
2022-12-19T22:54:55.932Z,30.35
2022-12-19T22:57:22.498Z,27.13
2022-12-19T22:59:49.060Z,31.92
2022-12-19T23:02:15.795Z,29.70
2022-12-19T23:04:42.509Z,31.52
2022-12-19T23:07:09.129Z,31.77
2022-12-19T23:09:35.703Z,31.42
2022-12-19T23:12:02.286Z,24.85
2022-12-19T23:14:28.885Z,27.60
2022-12-19T23:16:55.544Z,28.60
2022-12-19T23:19:22.202Z,29.75
2022-12-19T23:21:48.809Z,31.90
2022-12-19T23:24:15.393Z,31.45
2022-12-19T23:26:42.315Z,31.30
2022-12-19T23:29:11.722Z,29.67
2022-12-19T23:31:43.901Z,27.63
2022-12-19T23:34:10.750Z,27.35
2022-12-19T23:37:09.526Z,29.30
2022-12-19T23:39:24.388Z,29.17
2022-12-19T23:41:51.000Z,29.45
2022-12-19T23:44:17.766Z,29.52
2022-12-19T23:46:44.356Z,27.00
2022-12-19T23:49:10.941Z,28.15
2022-12-19T23:51:37.514Z,27.90
2022-12-19T23:54:04.229Z,31.20
2022-12-19T23:56:32.508Z,30.58
2022-12-19T23:58:59.984Z,31.38
